Eugenia B — 9HPE7 — position and weather

sailwx.info

Track history (hours):
 
Tides and Currents Weather Stations Pressure Air Temp Water Temp Dewpoint Dewpoint Depression Visibility Wind Speed Wind Dir Waves Ship Positions

Eugenia B

Last reported at 2018-Jan-03 12:17 UTC. Time now 2018-Jan-19 21:24 UTC.
Position N 35°35' E 026°03'.
Warning: this ship's position is 16 days out of date.

Length 187 m; draft 6.2 m.

Type: Cargo ship. MMSI: 215445000.

Date/timePositionNaut miles runAvg speedWind from/ knotsBaromVisibWave heightAir tempDewpointWater temp
2018-Jan-03 12:17N 35°35' E 026°03'413.1
2018-Jan-03 12:00N 35°36' E 025°58'713.1
2018-Jan-03 11:30N 35°38' E 025°51'612.7
2018-Jan-03 11:00N 35°38' E 025°43'713.1
2018-Jan-03 10:30N 35°40' E 025°35'713.1
2018-Jan-03 10:00N 35°42' E 025°28'713.2
2018-Jan-03 09:30N 35°44' E 025°20'713.0
2018-Jan-03 09:00N 35°46' E 025°12'713.3
2018-Jan-03 08:30N 35°48' E 025°04'813.4
2018-Jan-03 07:55N 35°50' E 024°55'613.5
2018-Jan-03 07:30N 35°52' E 024°49'713.3
2018-Jan-03 07:00N 35°54' E 024°41'713.2
2018-Jan-03 06:30N 35°56' E 024°33'713.6
2018-Jan-03 05:58N 35°59' E 024°25'613.1
2018-Jan-03 05:30N 36°01' E 024°18'611.2
2018-Jan-03 05:00N 36°05' E 024°12'611.5
2018-Jan-03 04:30N 36°10' E 024°10'612.0
2018-Jan-03 04:00N 36°16' E 024°08'612.3
2018-Jan-03 03:30N 36°22' E 024°07'611.8
2018-Jan-03 03:00N 36°28' E 024°05'611.5
2018-Jan-03 02:30N 36°33' E 024°04'611.7
2018-Jan-03 02:00N 36°39' E 024°02'611.9
2018-Jan-03 01:30N 36°45' E 024°00'612.1
2018-Jan-03 01:00N 36°51' E 023°59'611.9
2018-Jan-03 00:30N 36°57' E 023°57'611.4
2018-Jan-03 00:00N 37°02' E 023°56'611.6
2018-Jan-02 23:30N 37°08' E 023°54'811.9
2018-Jan-02 22:50N 37°15' E 023°51'1312.6
2018-Jan-02 21:50N 37°28' E 023°48'512.9
2018-Jan-02 21:26N 37°33' E 023°46'612.5
2018-Jan-02 21:00N 37°38' E 023°44'613.0
2018-Jan-02 20:30N 37°43' E 023°40'612.6
2018-Jan-02 20:00N 37°49' E 023°37'4 8.2
2018-Jan-02 19:28N 37°53' E 023°33'0 0.1
2018-Jan-02 18:58N 37°53' E 023°33'0 0.0
2018-Jan-02 18:25N 37°53' E 023°34'0 0.1
2018-Jan-02 17:58N 37°53' E 023°33'0 0.0
2018-Jan-02 17:28N 37°53' E 023°33'0 0.0
2018-Jan-02 16:58N 37°53' E 023°33'0 0.2
2018-Jan-02 16:28N 37°53' E 023°34'0 0.1
2018-Jan-02 15:55N 37°53' E 023°34'0 0.0
2018-Jan-02 15:28N 37°53' E 023°34'0 0.1
2018-Jan-02 14:58N 37°53' E 023°34'0 0.0
2018-Jan-02 14:28N 37°53' E 023°34'0 0.2
2018-Jan-02 13:58N 37°53' E 023°34'0 0.0
2018-Jan-02 13:28N 37°53' E 023°34'0 0.1
2018-Jan-02 12:58N 37°53' E 023°34'0 0.0
2018-Jan-02 12:25N 37°53' E 023°34'0 0.0
2018-Jan-02 11:58N 37°53' E 023°34'0 0.0
2018-Jan-02 11:28N 37°53' E 023°34'0 0.1
2018-Jan-02 11:01N 37°53' E 023°34'0 0.0
2018-Jan-02 10:31N 37°53' E 023°34'0 0.1
2018-Jan-02 10:01N 37°53' E 023°34'0 0.1
2018-Jan-02 09:30N 37°53' E 023°34'0 0.1
2018-Jan-02 08:30N 37°53' E 023°34'0 0.0
2018-Jan-02 07:57N 37°53' E 023°34'0 0.1
2018-Jan-02 07:30N 37°53' E 023°34'1 1.7
2018-Jan-02 07:00N 37°53' E 023°35'4 7.7
2018-Jan-02 06:30N 37°51' E 023°39'612.5
2018-Jan-02 06:00N 37°45' E 023°43'612.4
2018-Jan-02 05:30N 37°39' E 023°46'2613.2
2018-Jan-02 03:31N 37°13' E 023°45'013.5
2018-Jan-02 03:29N 37°13' E 023°45'613.1
2018-Jan-02 03:00N 37°07' E 023°43'712.6
2018-Jan-02 02:28N 37°01' E 023°39'  
2017-Dec-26 20:18N 43°39' E 013°29'0 0.0
2017-Dec-26 19:57N 43°39' E 013°29'0 0.0
2017-Dec-26 19:30N 43°39' E 013°29'  
2017-Dec-24 14:21N 43°39' E 013°29'  
Track history (hours):
 
Tides and Currents Weather Stations Pressure Air Temp Water Temp Dewpoint Dewpoint Depression Visibility Wind Speed Wind Dir Waves Ship Positions

Eugenia B

Last reported at 2018-Jan-03 12:17 UTC. Time now 2018-Jan-19 21:24 UTC.
Position N 35°35' E 026°03'.
Warning: this ship's position is 16 days out of date.

Length 187 m; draft 6.2 m.

Type: Cargo ship. MMSI: 215445000.

Date/timePositionNaut miles runAvg speedWind from/ knotsBaromVisibWave heightAir tempDewpointWater temp
2018-Jan-03 12:17N 35°35' E 026°03'413.1
2018-Jan-03 12:00N 35°36' E 025°58'713.1
2018-Jan-03 11:30N 35°38' E 025°51'612.7
2018-Jan-03 11:00N 35°38' E 025°43'713.1
2018-Jan-03 10:30N 35°40' E 025°35'713.1
2018-Jan-03 10:00N 35°42' E 025°28'713.2
2018-Jan-03 09:30N 35°44' E 025°20'713.0
2018-Jan-03 09:00N 35°46' E 025°12'713.3
2018-Jan-03 08:30N 35°48' E 025°04'813.4
2018-Jan-03 07:55N 35°50' E 024°55'613.5
2018-Jan-03 07:30N 35°52' E 024°49'713.3
2018-Jan-03 07:00N 35°54' E 024°41'713.2
2018-Jan-03 06:30N 35°56' E 024°33'713.6
2018-Jan-03 05:58N 35°59' E 024°25'613.1
2018-Jan-03 05:30N 36°01' E 024°18'611.2
2018-Jan-03 05:00N 36°05' E 024°12'611.5
2018-Jan-03 04:30N 36°10' E 024°10'612.0
2018-Jan-03 04:00N 36°16' E 024°08'612.3
2018-Jan-03 03:30N 36°22' E 024°07'611.8
2018-Jan-03 03:00N 36°28' E 024°05'611.5
2018-Jan-03 02:30N 36°33' E 024°04'611.7
2018-Jan-03 02:00N 36°39' E 024°02'611.9
2018-Jan-03 01:30N 36°45' E 024°00'612.1
2018-Jan-03 01:00N 36°51' E 023°59'611.9
2018-Jan-03 00:30N 36°57' E 023°57'611.4
2018-Jan-03 00:00N 37°02' E 023°56'611.6
2018-Jan-02 23:30N 37°08' E 023°54'811.9
2018-Jan-02 22:50N 37°15' E 023°51'1312.6
2018-Jan-02 21:50N 37°28' E 023°48'512.9
2018-Jan-02 21:26N 37°33' E 023°46'612.5
2018-Jan-02 21:00N 37°38' E 023°44'613.0
2018-Jan-02 20:30N 37°43' E 023°40'612.6
2018-Jan-02 20:00N 37°49' E 023°37'4 8.2
2018-Jan-02 19:28N 37°53' E 023°33'0 0.1
2018-Jan-02 18:58N 37°53' E 023°33'0 0.0
2018-Jan-02 18:25N 37°53' E 023°34'0 0.1
2018-Jan-02 17:58N 37°53' E 023°33'0 0.0
2018-Jan-02 17:28N 37°53' E 023°33'0 0.0
2018-Jan-02 16:58N 37°53' E 023°33'0 0.2
2018-Jan-02 16:28N 37°53' E 023°34'0 0.1
2018-Jan-02 15:55N 37°53' E 023°34'0 0.0
2018-Jan-02 15:28N 37°53' E 023°34'0 0.1
2018-Jan-02 14:58N 37°53' E 023°34'0 0.0
2018-Jan-02 14:28N 37°53' E 023°34'0 0.2
2018-Jan-02 13:58N 37°53' E 023°34'0 0.0
2018-Jan-02 13:28N 37°53' E 023°34'0 0.1
2018-Jan-02 12:58N 37°53' E 023°34'0 0.0
2018-Jan-02 12:25N 37°53' E 023°34'0 0.0
2018-Jan-02 11:58N 37°53' E 023°34'0 0.0
2018-Jan-02 11:28N 37°53' E 023°34'0 0.1
2018-Jan-02 11:01N 37°53' E 023°34'0 0.0
2018-Jan-02 10:31N 37°53' E 023°34'0 0.1
2018-Jan-02 10:01N 37°53' E 023°34'0 0.1
2018-Jan-02 09:30N 37°53' E 023°34'0 0.1
2018-Jan-02 08:30N 37°53' E 023°34'0 0.0
2018-Jan-02 07:57N 37°53' E 023°34'0 0.1
2018-Jan-02 07:30N 37°53' E 023°34'1 1.7
2018-Jan-02 07:00N 37°53' E 023°35'4 7.7
2018-Jan-02 06:30N 37°51' E 023°39'612.5
2018-Jan-02 06:00N 37°45' E 023°43'612.4
2018-Jan-02 05:30N 37°39' E 023°46'2613.2
2018-Jan-02 03:31N 37°13' E 023°45'013.5
2018-Jan-02 03:29N 37°13' E 023°45'613.1
2018-Jan-02 03:00N 37°07' E 023°43'712.6
2018-Jan-02 02:28N 37°01' E 023°39'  
2017-Dec-26 20:18N 43°39' E 013°29'0 0.0
2017-Dec-26 19:57N 43°39' E 013°29'0 0.0
2017-Dec-26 19:30N 43°39' E 013°29'  
2017-Dec-24 14:21N 43°39' E 013°29'  

Dump ship's entire track history